This is the latest recevied weather packets stored in our database for station/object G8PZT. If no packets are shown the sender has not sent any weather packets the latest 10 day(s).
| Time | Temp. | Humidity | Pressure | Rain* | Wind** | Luminosity | Snow |
|---|---|---|---|---|---|---|---|
| 1787734802 | 22.78° C | 34% | - | 0 mm | - | - | - |
| 1787734718 | 22.78° C | 35% | - | 0 mm | - | - | - |
| 1787734118 | 22.22° C | 37% | - | 0 mm | - | - | - |
| 1787733603 | 21.11° C | 42% | - | 0 mm | - | - | - |
| 1787733518 | 21.11° C | 42% | - | 0 mm | - | - | - |
| 1787732918 | 20.56° C | 50% | - | 0 mm | - | - | - |
| 1787732319 | 18.89° C | 58% | - | 0 mm | - | - | - |
| 1787731719 | 18.33° C | 60% | - | 0 mm | - | - | - |
| 1787731203 | 17.78° C | 63% | - | 0 mm | - | - | - |
| 1787731119 | 17.78° C | 63% | - | 0 mm | - | - | - |
| 1787730519 | 17.22° C | 66% | - | 0 mm | - | - | - |
| 1787730003 | 16.67° C | 69% | - | 0 mm | - | - | - |
| 1787729919 | 16.67° C | 69% | - | 0 mm | - | - | - |
| 1787729319 | 16.67° C | 69% | - | 0 mm | - | - | - |
| 1787728801 | 16.67° C | 69% | - | 0 mm | - | - | - |
| 1787728719 | 16.11° C | 69% | - | 0 mm | - | - | - |
| 1787728118 | 16.11° C | 69% | - | 0 mm | - | - | - |
| 1787727602 | 15.56° C | 69% | - | 0 mm | - | - | - |
| 1787727518 | 15.56° C | 69% | - | 0 mm | - | - | - |
| 1787726918 | 15.56° C | 68% | - | 0 mm | - | - | - |
| 1787726402 | 15.56° C | 68% | - | 0 mm | - | - | - |
| 1787726318 | 15.56° C | 68% | - | 0 mm | - | - | - |
| 1787725718 | 15.56° C | 68% | - | 0 mm | - | - | - |
| 1787725202 | 15° C | 68% | - | 0 mm | - | - | - |
| 1787725119 | 15° C | 68% | - | 0 mm | - | - | - |
* Rain latest hour (hover to see other rain measurements)
** Current wind speed in m/s (hover to see current wind gust speed)